sensor_id;sensor_type;location;lat;lon;timestamp;pressure;altitude;pressure_sealevel;temperature;humidity
5814;BME280;2933;52.302;8.134;2022-07-25T00:04:00;100322.72;;;19.78;75.92
5814;BME280;2933;52.302;8.134;2022-07-25T00:09:02;100305.16;;;19.50;76.70
5814;BME280;2933;52.302;8.134;2022-07-25T00:14:04;100303.47;;;19.67;75.99
5814;BME280;2933;52.302;8.134;2022-07-25T00:19:08;100300.63;;;19.87;75.11
5814;BME280;2933;52.302;8.134;2022-07-25T00:24:09;100290.47;;;19.56;76.60
5814;BME280;2933;52.302;8.134;2022-07-25T00:29:11;100291.97;;;19.59;76.39
5814;BME280;2933;52.302;8.134;2022-07-25T00:34:14;100286.97;;;19.47;76.26
5814;BME280;2933;52.302;8.134;2022-07-25T00:39:15;100283.97;;;19.50;76.48
5814;BME280;2933;52.302;8.134;2022-07-25T00:44:21;100276.72;;;19.52;75.53
5814;BME280;2933;52.302;8.134;2022-07-25T00:49:25;100269.69;;;19.69;75.06
5814;BME280;2933;52.302;8.134;2022-07-25T00:54:28;100262.13;;;19.83;72.88
5814;BME280;2933;52.302;8.134;2022-07-25T00:59:30;100256.28;;;20.14;71.36
5814;BME280;2933;52.302;8.134;2022-07-25T01:04:33;100246.88;;;20.36;69.22
5814;BME280;2933;52.302;8.134;2022-07-25T01:09:35;100252.38;;;20.51;68.81
5814;BME280;2933;52.302;8.134;2022-07-25T01:14:37;100254.03;;;20.52;68.22
5814;BME280;2933;52.302;8.134;2022-07-25T01:19:40;100239.78;;;20.53;67.76
5814;BME280;2933;52.302;8.134;2022-07-25T01:24:43;100240.91;;;20.42;67.74
5814;BME280;2933;52.302;8.134;2022-07-25T01:29:44;100238.63;;;20.56;67.17
5814;BME280;2933;52.302;8.134;2022-07-25T01:34:46;100231.47;;;20.40;68.25
5814;BME280;2933;52.302;8.134;2022-07-25T01:39:48;100235.44;;;20.36;69.14
5814;BME280;2933;52.302;8.134;2022-07-25T01:44:50;100223.94;;;20.10;70.42
5814;BME280;2933;52.302;8.134;2022-07-25T01:49:52;100213.78;;;19.89;70.81
5814;BME280;2933;52.302;8.134;2022-07-25T01:54:58;100218.31;;;19.97;70.84
5814;BME280;2933;52.302;8.134;2022-07-25T01:59:59;100211.91;;;19.81;71.56
5814;BME280;2933;52.302;8.134;2022-07-25T02:05:01;100207.66;;;19.54;72.96
5814;BME280;2933;52.302;8.134;2022-07-25T02:10:05;100201.72;;;19.52;73.45
5814;BME280;2933;52.302;8.134;2022-07-25T02:15:08;100197.00;;;19.37;74.38
5814;BME280;2933;52.302;8.134;2022-07-25T02:20:10;100187.88;;;19.32;74.61
5814;BME280;2933;52.302;8.134;2022-07-25T02:25:13;100185.59;;;19.11;75.47
5814;BME280;2933;52.302;8.134;2022-07-25T02:30:15;100184.13;;;18.90;76.13
5814;BME280;2933;52.302;8.134;2022-07-25T02:35:17;100190.09;;;18.92;76.44
5814;BME280;2933;52.302;8.134;2022-07-25T02:40:20;100177.72;;;18.93;76.74
5814;BME280;2933;52.302;8.134;2022-07-25T02:45:21;100169.03;;;18.82;76.96
5814;BME280;2933;52.302;8.134;2022-07-25T02:50:23;100160.88;;;18.76;77.67
5814;BME280;2933;52.302;8.134;2022-07-25T02:55:26;100152.75;;;18.77;77.47
5814;BME280;2933;52.302;8.134;2022-07-25T03:00:28;100143.53;;;18.55;78.48
5814;BME280;2933;52.302;8.134;2022-07-25T03:05:30;100143.25;;;18.40;79.24
5814;BME280;2933;52.302;8.134;2022-07-25T03:10:33;100136.91;;;18.33;79.13
5814;BME280;2933;52.302;8.134;2022-07-25T03:15:35;100137.28;;;18.38;79.09
5814;BME280;2933;52.302;8.134;2022-07-25T03:20:37;100132.81;;;18.38;79.10
5814;BME280;2933;52.302;8.134;2022-07-25T03:25:40;100126.25;;;18.43;78.98
5814;BME280;2933;52.302;8.134;2022-07-25T03:30:41;100124.88;;;18.38;79.04
5814;BME280;2933;52.302;8.134;2022-07-25T03:35:43;100116.28;;;18.18;79.81
5814;BME280;2933;52.302;8.134;2022-07-25T03:40:46;100116.22;;;18.28;79.51
5814;BME280;2933;52.302;8.134;2022-07-25T03:45:47;100109.25;;;18.27;79.69
5814;BME280;2933;52.302;8.134;2022-07-25T03:50:49;100106.41;;;18.20;79.69
5814;BME280;2933;52.302;8.134;2022-07-25T03:55:52;100105.34;;;18.13;79.90
5814;BME280;2933;52.302;8.134;2022-07-25T04:00:53;100099.28;;;18.21;79.61
5814;BME280;2933;52.302;8.134;2022-07-25T04:05:55;100102.91;;;18.20;79.86
5814;BME280;2933;52.302;8.134;2022-07-25T04:10:58;100097.72;;;18.28;79.64
5814;BME280;2933;52.302;8.134;2022-07-25T04:15:59;100092.84;;;18.41;79.73
5814;BME280;2933;52.302;8.134;2022-07-25T04:21:01;100087.84;;;18.38;79.76
5814;BME280;2933;52.302;8.134;2022-07-25T04:26:04;100076.47;;;18.38;79.43
5814;BME280;2933;52.302;8.134;2022-07-25T04:31:06;100061.94;;;18.42;80.13
5814;BME280;2933;52.302;8.134;2022-07-25T04:36:07;100055.66;;;18.69;79.81
5814;BME280;2933;52.302;8.134;2022-07-25T04:41:10;100038.88;;;18.87;79.07
5814;BME280;2933;52.302;8.134;2022-07-25T04:46:16;100045.28;;;19.11;79.04
5814;BME280;2933;52.302;8.134;2022-07-25T04:51:18;100045.34;;;19.35;77.63
5814;BME280;2933;52.302;8.134;2022-07-25T04:56:21;100038.75;;;19.48;77.34
5814;BME280;2933;52.302;8.134;2022-07-25T05:01:22;100033.66;;;19.63;76.85
5814;BME280;2933;52.302;8.134;2022-07-25T05:06:24;100040.63;;;19.80;77.74
5814;BME280;2933;52.302;8.134;2022-07-25T05:11:27;100022.63;;;19.92;78.49
5814;BME280;2933;52.302;8.134;2022-07-25T05:16:29;100037.69;;;20.08;79.08
5814;BME280;2933;52.302;8.134;2022-07-25T05:21:31;100031.06;;;20.21;78.14
5814;BME280;2933;52.302;8.134;2022-07-25T05:26:34;100023.75;;;20.31;78.89
5814;BME280;2933;52.302;8.134;2022-07-25T05:31:35;100005.34;;;20.21;77.21
5814;BME280;2933;52.302;8.134;2022-07-25T05:36:37;100017.56;;;20.47;76.50
5814;BME280;2933;52.302;8.134;2022-07-25T05:41:40;100014.38;;;20.60;76.61
5814;BME280;2933;52.302;8.134;2022-07-25T05:46:42;100006.91;;;20.63;72.56
5814;BME280;2933;52.302;8.134;2022-07-25T05:51:43;99991.28;;;20.69;74.31
5814;BME280;2933;52.302;8.134;2022-07-25T05:56:46;99987.97;;;20.83;73.14
5814;BME280;2933;52.302;8.134;2022-07-25T06:01:47;99995.13;;;21.06;72.96
5814;BME280;2933;52.302;8.134;2022-07-25T06:06:49;99990.38;;;21.24;66.40
5814;BME280;2933;52.302;8.134;2022-07-25T06:11:52;99993.16;;;21.62;62.81
5814;BME280;2933;52.302;8.134;2022-07-25T06:16:54;99979.88;;;22.01;59.06
5814;BME280;2933;52.302;8.134;2022-07-25T06:21:55;99979.53;;;22.34;57.01
5814;BME280;2933;52.302;8.134;2022-07-25T06:26:58;99985.16;;;22.39;56.97
5814;BME280;2933;52.302;8.134;2022-07-25T06:32:01;99979.03;;;22.53;56.64
5814;BME280;2933;52.302;8.134;2022-07-25T06:37:02;99977.53;;;22.66;55.82
5814;BME280;2933;52.302;8.134;2022-07-25T06:42:05;99976.88;;;22.79;54.98
5814;BME280;2933;52.302;8.134;2022-07-25T06:47:07;99984.50;;;22.82;56.51
5814;BME280;2933;52.302;8.134;2022-07-25T06:52:12;99968.88;;;22.79;55.54
5814;BME280;2933;52.302;8.134;2022-07-25T06:57:15;99969.31;;;22.97;57.80
5814;BME280;2933;52.302;8.134;2022-07-25T07:02:16;99968.81;;;23.45;55.81
5814;BME280;2933;52.302;8.134;2022-07-25T07:07:18;99958.44;;;23.57;56.00
5814;BME280;2933;52.302;8.134;2022-07-25T07:12:21;99956.94;;;23.48;57.09
5814;BME280;2933;52.302;8.134;2022-07-25T07:17:22;99950.28;;;23.37;57.12
5814;BME280;2933;52.302;8.134;2022-07-25T07:22:24;99949.59;;;23.78;55.86
5814;BME280;2933;52.302;8.134;2022-07-25T07:27:27;99947.38;;;24.03;52.94
5814;BME280;2933;52.302;8.134;2022-07-25T07:32:28;99950.88;;;24.46;53.39
5814;BME280;2933;52.302;8.134;2022-07-25T07:37:30;99931.94;;;24.76;48.82
5814;BME280;2933;52.302;8.134;2022-07-25T07:42:38;99938.38;;;25.02;48.00
5814;BME280;2933;52.302;8.134;2022-07-25T07:47:40;99932.66;;;25.25;47.67
5814;BME280;2933;52.302;8.134;2022-07-25T07:52:43;99936.41;;;25.57;46.82
5814;BME280;2933;52.302;8.134;2022-07-25T07:57:46;99934.78;;;25.63;47.04
5814;BME280;2933;52.302;8.134;2022-07-25T08:02:49;99930.84;;;25.72;46.57
5814;BME280;2933;52.302;8.134;2022-07-25T08:07:52;99920.34;;;25.91;46.40
5814;BME280;2933;52.302;8.134;2022-07-25T08:12:55;99913.56;;;26.08;47.25
5814;BME280;2933;52.302;8.134;2022-07-25T08:17:57;99911.63;;;26.36;45.68
5814;BME280;2933;52.302;8.134;2022-07-25T08:22:59;99888.75;;;26.40;45.41
5814;BME280;2933;52.302;8.134;2022-07-25T08:28:03;99896.41;;;26.29;46.03
5814;BME280;2933;52.302;8.134;2022-07-25T08:33:07;99881.50;;;26.40;45.16
5814;BME280;2933;52.302;8.134;2022-07-25T08:38:09;99896.72;;;26.53;44.83
5814;BME280;2933;52.302;8.134;2022-07-25T08:43:13;99887.81;;;26.59;44.65
5814;BME280;2933;52.302;8.134;2022-07-25T08:48:17;99881.28;;;26.49;45.28
5814;BME280;2933;52.302;8.134;2022-07-25T08:53:20;99901.63;;;26.56;45.48
5814;BME280;2933;52.302;8.134;2022-07-25T08:58:24;99903.09;;;26.52;44.37
5814;BME280;2933;52.302;8.134;2022-07-25T09:03:25;99895.91;;;26.46;45.22
5814;BME280;2933;52.302;8.134;2022-07-25T09:08:27;99899.19;;;26.48;45.04
5814;BME280;2933;52.302;8.134;2022-07-25T09:13:30;99898.25;;;26.29;45.18
5814;BME280;2933;52.302;8.134;2022-07-25T09:18:37;99899.66;;;26.32;44.82
5814;BME280;2933;52.302;8.134;2022-07-25T09:23:42;99893.94;;;26.21;45.64
5814;BME280;2933;52.302;8.134;2022-07-25T09:28:46;99894.16;;;26.13;46.19
5814;BME280;2933;52.302;8.134;2022-07-25T09:33:51;99896.66;;;26.08;46.21
5814;BME280;2933;52.302;8.134;2022-07-25T09:38:57;99891.09;;;26.03;45.53
5814;BME280;2933;52.302;8.134;2022-07-25T09:44:01;99887.00;;;25.87;46.21
5814;BME280;2933;52.302;8.134;2022-07-25T09:49:03;99889.44;;;26.15;47.28
5814;BME280;2933;52.302;8.134;2022-07-25T09:54:05;99881.22;;;26.55;45.31
5814;BME280;2933;52.302;8.134;2022-07-25T09:59:08;99877.44;;;26.76;46.44
5814;BME280;2933;52.302;8.134;2022-07-25T10:04:13;99883.91;;;27.01;45.74
5814;BME280;2933;52.302;8.134;2022-07-25T10:09:18;99880.88;;;26.90;45.45
5814;BME280;2933;52.302;8.134;2022-07-25T10:14:21;99874.28;;;27.18;45.96
5814;BME280;2933;52.302;8.134;2022-07-25T10:19:43;99867.50;;;27.16;45.54
5814;BME280;2933;52.302;8.134;2022-07-25T10:24:46;99872.88;;;27.41;44.74
5814;BME280;2933;52.302;8.134;2022-07-25T10:29:52;99869.53;;;27.89;44.43
5814;BME280;2933;52.302;8.134;2022-07-25T10:34:54;99875.00;;;28.20;42.98
5814;BME280;2933;52.302;8.134;2022-07-25T10:39:55;99861.72;;;28.25;42.90
5814;BME280;2933;52.302;8.134;2022-07-25T10:45:00;99861.41;;;28.64;42.08
5814;BME280;2933;52.302;8.134;2022-07-25T10:50:09;99858.59;;;28.89;41.56
5814;BME280;2933;52.302;8.134;2022-07-25T10:55:21;99869.91;;;28.79;41.08
5814;BME280;2933;52.302;8.134;2022-07-25T11:00:24;99872.47;;;28.56;42.75
5814;BME280;2933;52.302;8.134;2022-07-25T11:05:27;99869.34;;;28.77;43.21
5814;BME280;2933;52.302;8.134;2022-07-25T11:10:30;99864.53;;;28.49;42.23
5814;BME280;2933;52.302;8.134;2022-07-25T11:15:33;99866.94;;;28.38;43.07
5814;BME280;2933;52.302;8.134;2022-07-25T11:20:36;99865.09;;;28.69;41.71
5814;BME280;2933;52.302;8.134;2022-07-25T11:25:37;99858.75;;;28.64;41.75
5814;BME280;2933;52.302;8.134;2022-07-25T11:30:42;99858.09;;;28.50;42.38
5814;BME280;2933;52.302;8.134;2022-07-25T11:35:44;99857.00;;;28.39;42.27
5814;BME280;2933;52.302;8.134;2022-07-25T11:40:46;99871.06;;;28.53;43.36
5814;BME280;2933;52.302;8.134;2022-07-25T11:45:57;99855.84;;;29.08;42.20
5814;BME280;2933;52.302;8.134;2022-07-25T11:51:08;99859.41;;;29.44;42.12
5814;BME280;2933;52.302;8.134;2022-07-25T11:56:16;99863.03;;;29.73;41.58
5814;BME280;2933;52.302;8.134;2022-07-25T12:01:19;99861.88;;;29.69;41.09
5814;BME280;2933;52.302;8.134;2022-07-25T12:06:28;99858.34;;;29.45;41.40
5814;BME280;2933;52.302;8.134;2022-07-25T12:11:29;99846.06;;;29.61;40.75
5814;BME280;2933;52.302;8.134;2022-07-25T12:16:32;99846.63;;;29.75;40.65
5814;BME280;2933;52.302;8.134;2022-07-25T12:21:34;99849.00;;;29.47;41.62
5814;BME280;2933;52.302;8.134;2022-07-25T12:26:35;99842.69;;;29.42;42.08
5814;BME280;2933;52.302;8.134;2022-07-25T12:31:38;99853.91;;;29.50;42.70
5814;BME280;2933;52.302;8.134;2022-07-25T12:36:41;99827.94;;;29.44;43.06
5814;BME280;2933;52.302;8.134;2022-07-25T12:41:44;99848.16;;;29.71;42.12
5814;BME280;2933;52.302;8.134;2022-07-25T12:46:47;99855.19;;;29.60;42.40
5814;BME280;2933;52.302;8.134;2022-07-25T12:51:49;99860.69;;;29.65;42.54
5814;BME280;2933;52.302;8.134;2022-07-25T12:56:50;99861.28;;;29.43;42.78
5814;BME280;2933;52.302;8.134;2022-07-25T13:01:53;99874.84;;;28.94;43.15
5814;BME280;2933;52.302;8.134;2022-07-25T13:06:55;99860.44;;;29.43;42.60
5814;BME280;2933;52.302;8.134;2022-07-25T13:11:57;99871.06;;;29.26;43.82
5814;BME280;2933;52.302;8.134;2022-07-25T13:17:00;99874.72;;;29.55;43.62
5814;BME280;2933;52.302;8.134;2022-07-25T13:22:01;99890.28;;;29.65;43.90
5814;BME280;2933;52.302;8.134;2022-07-25T13:27:03;99886.06;;;29.33;44.19
5814;BME280;2933;52.302;8.134;2022-07-25T13:32:06;99894.94;;;28.61;43.31
5814;BME280;2933;52.302;8.134;2022-07-25T13:37:07;99897.28;;;28.39;43.52
5814;BME280;2933;52.302;8.134;2022-07-25T13:42:09;99892.78;;;28.21;44.09
5814;BME280;2933;52.302;8.134;2022-07-25T13:47:12;99899.50;;;27.86;44.06
5814;BME280;2933;52.302;8.134;2022-07-25T13:52:13;99905.41;;;27.95;43.66
5814;BME280;2933;52.302;8.134;2022-07-25T13:57:15;99915.19;;;27.64;43.86
5814;BME280;2933;52.302;8.134;2022-07-25T14:02:18;99916.94;;;27.27;44.79
5814;BME280;2933;52.302;8.134;2022-07-25T14:07:19;99939.19;;;27.27;44.89
5814;BME280;2933;52.302;8.134;2022-07-25T14:12:21;99948.34;;;27.13;44.30
5814;BME280;2933;52.302;8.134;2022-07-25T14:17:24;99942.78;;;27.14;42.97
5814;BME280;2933;52.302;8.134;2022-07-25T14:22:26;99949.81;;;27.08;43.35
5814;BME280;2933;52.302;8.134;2022-07-25T14:27:28;99956.16;;;26.82;44.66
5814;BME280;2933;52.302;8.134;2022-07-25T14:32:31;99952.03;;;26.73;44.85
5814;BME280;2933;52.302;8.134;2022-07-25T14:37:33;99946.66;;;26.86;45.12
5814;BME280;2933;52.302;8.134;2022-07-25T14:42:34;99941.38;;;27.12;45.02
5814;BME280;2933;52.302;8.134;2022-07-25T14:47:37;99935.19;;;27.43;44.36
5814;BME280;2933;52.302;8.134;2022-07-25T14:52:39;99942.44;;;27.61;44.97
5814;BME280;2933;52.302;8.134;2022-07-25T14:57:42;99946.25;;;27.53;44.63
5814;BME280;2933;52.302;8.134;2022-07-25T15:02:45;99951.00;;;27.19;44.64
5814;BME280;2933;52.302;8.134;2022-07-25T15:07:47;99943.69;;;27.01;45.81
5814;BME280;2933;52.302;8.134;2022-07-25T15:12:48;99938.38;;;26.88;45.68
5814;BME280;2933;52.302;8.134;2022-07-25T15:17:52;99939.44;;;26.87;45.68
5814;BME280;2933;52.302;8.134;2022-07-25T15:22:54;99961.75;;;26.67;45.36
5814;BME280;2933;52.302;8.134;2022-07-25T15:27:56;99970.56;;;26.09;46.60
5814;BME280;2933;52.302;8.134;2022-07-25T15:32:59;99988.06;;;25.78;48.10
5814;BME280;2933;52.302;8.134;2022-07-25T15:38:01;100008.63;;;25.51;48.85
5814;BME280;2933;52.302;8.134;2022-07-25T15:43:02;100016.63;;;25.51;49.93
5814;BME280;2933;52.302;8.134;2022-07-25T15:48:06;100011.72;;;25.47;50.17
5814;BME280;2933;52.302;8.134;2022-07-25T15:53:08;100010.06;;;25.46;49.87
5814;BME280;2933;52.302;8.134;2022-07-25T15:58:10;100015.81;;;25.57;49.12
5814;BME280;2933;52.302;8.134;2022-07-25T16:03:13;100028.16;;;25.38;47.37
5814;BME280;2933;52.302;8.134;2022-07-25T16:08:15;100010.25;;;25.45;47.43
5814;BME280;2933;52.302;8.134;2022-07-25T16:13:17;100016.91;;;25.07;48.10
5814;BME280;2933;52.302;8.134;2022-07-25T16:18:20;100025.44;;;24.82;48.88
5814;BME280;2933;52.302;8.134;2022-07-25T16:23:22;100035.41;;;25.09;48.93
5814;BME280;2933;52.302;8.134;2022-07-25T16:28:25;100040.41;;;25.25;49.44
5814;BME280;2933;52.302;8.134;2022-07-25T16:33:28;100034.28;;;24.83;50.32
5814;BME280;2933;52.302;8.134;2022-07-25T16:38:29;100048.91;;;24.59;50.88
5814;BME280;2933;52.302;8.134;2022-07-25T16:43:31;100042.66;;;24.38;51.42
5814;BME280;2933;52.302;8.134;2022-07-25T16:48:35;100046.59;;;24.49;50.50
5814;BME280;2933;52.302;8.134;2022-07-25T16:53:37;100046.81;;;24.54;50.47
5814;BME280;2933;52.302;8.134;2022-07-25T16:58:38;100029.31;;;24.45;50.49
5814;BME280;2933;52.302;8.134;2022-07-25T17:03:41;100053.22;;;24.25;49.62
5814;BME280;2933;52.302;8.134;2022-07-25T17:08:43;100039.38;;;24.14;49.87
5814;BME280;2933;52.302;8.134;2022-07-25T17:13:44;100041.97;;;24.01;51.33
5814;BME280;2933;52.302;8.134;2022-07-25T17:18:47;100052.19;;;23.97;51.02
5814;BME280;2933;52.302;8.134;2022-07-25T17:23:49;100059.34;;;23.97;51.89
5814;BME280;2933;52.302;8.134;2022-07-25T17:28:52;100053.47;;;23.86;50.66
5814;BME280;2933;52.302;8.134;2022-07-25T17:33:56;100072.81;;;23.88;50.09
5814;BME280;2933;52.302;8.134;2022-07-25T17:38:57;100066.19;;;23.84;49.46
5814;BME280;2933;52.302;8.134;2022-07-25T17:43:59;100043.09;;;23.33;49.49
5814;BME280;2933;52.302;8.134;2022-07-25T17:49:02;100068.00;;;23.40;49.54
5814;BME280;2933;52.302;8.134;2022-07-25T17:54:03;100058.81;;;23.43;50.19
5814;BME280;2933;52.302;8.134;2022-07-25T17:59:06;100071.56;;;23.48;49.56
5814;BME280;2933;52.302;8.134;2022-07-25T18:04:09;100056.38;;;23.48;50.37
5814;BME280;2933;52.302;8.134;2022-07-25T18:09:10;100073.88;;;23.36;51.02
5814;BME280;2933;52.302;8.134;2022-07-25T18:14:12;100070.78;;;23.17;51.69
5814;BME280;2933;52.302;8.134;2022-07-25T18:19:15;100075.47;;;23.15;51.58
5814;BME280;2933;52.302;8.134;2022-07-25T18:24:17;100061.50;;;23.13;52.23
5814;BME280;2933;52.302;8.134;2022-07-25T18:29:18;100071.38;;;22.98;53.07
5814;BME280;2933;52.302;8.134;2022-07-25T18:34:21;100076.03;;;23.11;52.65
5814;BME280;2933;52.302;8.134;2022-07-25T18:39:23;100068.50;;;22.99;53.07
5814;BME280;2933;52.302;8.134;2022-07-25T18:44:24;100077.25;;;22.93;52.97
5814;BME280;2933;52.302;8.134;2022-07-25T18:49:27;100085.03;;;22.80;53.44
5814;BME280;2933;52.302;8.134;2022-07-25T18:54:29;100092.69;;;22.83;51.79
5814;BME280;2933;52.302;8.134;2022-07-25T18:59:30;100098.34;;;22.80;50.32
5814;BME280;2933;52.302;8.134;2022-07-25T19:04:33;100106.44;;;22.71;49.59
5814;BME280;2933;52.302;8.134;2022-07-25T19:09:35;100107.59;;;22.54;49.43
5814;BME280;2933;52.302;8.134;2022-07-25T19:14:36;100101.25;;;22.40;49.35
5814;BME280;2933;52.302;8.134;2022-07-25T19:19:39;100121.72;;;22.39;48.21
5814;BME280;2933;52.302;8.134;2022-07-25T19:24:41;100126.88;;;22.33;48.04
5814;BME280;2933;52.302;8.134;2022-07-25T19:29:42;100122.41;;;22.10;48.14
5814;BME280;2933;52.302;8.134;2022-07-25T19:34:45;100153.69;;;22.08;47.65
5814;BME280;2933;52.302;8.134;2022-07-25T19:39:47;100157.22;;;22.00;47.87
5814;BME280;2933;52.302;8.134;2022-07-25T19:44:48;100166.13;;;21.84;47.88
5814;BME280;2933;52.302;8.134;2022-07-25T19:49:51;100173.94;;;21.86;47.70
5814;BME280;2933;52.302;8.134;2022-07-25T19:54:53;100174.91;;;21.61;47.45
5814;BME280;2933;52.302;8.134;2022-07-25T19:59:55;100189.16;;;21.69;46.94
5814;BME280;2933;52.302;8.134;2022-07-25T20:04:58;100178.72;;;21.51;47.68
5814;BME280;2933;52.302;8.134;2022-07-25T20:09:59;100174.63;;;21.40;47.98
5814;BME280;2933;52.302;8.134;2022-07-25T20:15:01;100199.03;;;21.43;49.22
5814;BME280;2933;52.302;8.134;2022-07-25T20:20:06;100197.38;;;21.34;48.40
5814;BME280;2933;52.302;8.134;2022-07-25T20:25:10;100200.06;;;21.26;48.35
5814;BME280;2933;52.302;8.134;2022-07-25T20:30:12;100205.22;;;21.27;48.87
5814;BME280;2933;52.302;8.134;2022-07-25T20:35:15;100203.38;;;21.28;49.58
5814;BME280;2933;52.302;8.134;2022-07-25T20:40:16;100207.03;;;21.35;49.42
5814;BME280;2933;52.302;8.134;2022-07-25T20:45:18;100210.19;;;21.30;49.48
5814;BME280;2933;52.302;8.134;2022-07-25T20:50:21;100210.88;;;21.24;49.58
5814;BME280;2933;52.302;8.134;2022-07-25T20:55:23;100195.91;;;21.23;50.41
5814;BME280;2933;52.302;8.134;2022-07-25T21:00:27;100226.78;;;21.33;50.33
5814;BME280;2933;52.302;8.134;2022-07-25T21:05:31;100223.16;;;21.34;50.58
5814;BME280;2933;52.302;8.134;2022-07-25T21:10:33;100207.88;;;21.27;50.55
5814;BME280;2933;52.302;8.134;2022-07-25T21:15:34;100212.94;;;20.97;51.00
5814;BME280;2933;52.302;8.134;2022-07-25T21:20:37;100219.22;;;20.96;51.51
5814;BME280;2933;52.302;8.134;2022-07-25T21:25:39;100225.53;;;20.95;51.91
5814;BME280;2933;52.302;8.134;2022-07-25T21:30:41;100236.47;;;21.01;51.90
5814;BME280;2933;52.302;8.134;2022-07-25T21:35:44;100241.63;;;20.86;52.44
5814;BME280;2933;52.302;8.134;2022-07-25T21:40:46;100240.97;;;20.75;52.62
5814;BME280;2933;52.302;8.134;2022-07-25T21:45:47;100249.59;;;20.77;52.44
5814;BME280;2933;52.302;8.134;2022-07-25T21:50:51;100248.59;;;20.70;52.53
5814;BME280;2933;52.302;8.134;2022-07-25T21:55:53;100245.25;;;20.52;52.50
5814;BME280;2933;52.302;8.134;2022-07-25T22:00:54;100247.91;;;20.60;52.82
5814;BME280;2933;52.302;8.134;2022-07-25T22:05:57;100249.72;;;20.43;52.61
5814;BME280;2933;52.302;8.134;2022-07-25T22:10:59;100248.38;;;20.30;53.34
5814;BME280;2933;52.302;8.134;2022-07-25T22:16:00;100250.53;;;20.35;53.62
5814;BME280;2933;52.302;8.134;2022-07-25T22:21:04;100253.16;;;20.18;53.91
5814;BME280;2933;52.302;8.134;2022-07-25T22:26:05;100261.31;;;20.25;54.14
5814;BME280;2933;52.302;8.134;2022-07-25T22:31:07;100257.28;;;20.21;54.82
5814;BME280;2933;52.302;8.134;2022-07-25T22:36:10;100272.06;;;20.15;55.32
5814;BME280;2933;52.302;8.134;2022-07-25T22:41:12;100274.63;;;19.99;55.62
5814;BME280;2933;52.302;8.134;2022-07-25T22:46:13;100263.59;;;20.12;55.67
5814;BME280;2933;52.302;8.134;2022-07-25T22:51:16;100283.66;;;20.14;55.95
5814;BME280;2933;52.302;8.134;2022-07-25T22:56:18;100270.19;;;20.08;56.35
5814;BME280;2933;52.302;8.134;2022-07-25T23:01:20;100287.25;;;20.05;56.66
5814;BME280;2933;52.302;8.134;2022-07-25T23:06:23;100281.28;;;20.03;56.84
5814;BME280;2933;52.302;8.134;2022-07-25T23:11:25;100290.22;;;20.02;56.93
5814;BME280;2933;52.302;8.134;2022-07-25T23:16:26;100286.38;;;19.88;57.71
5814;BME280;2933;52.302;8.134;2022-07-25T23:21:29;100275.00;;;19.78;57.67
5814;BME280;2933;52.302;8.134;2022-07-25T23:26:31;100284.59;;;19.70;58.21
5814;BME280;2933;52.302;8.134;2022-07-25T23:31:33;100289.91;;;19.70;58.52
5814;BME280;2933;52.302;8.134;2022-07-25T23:36:36;100297.47;;;19.65;58.92
5814;BME280;2933;52.302;8.134;2022-07-25T23:41:37;100273.91;;;19.54;59.38
5814;BME280;2933;52.302;8.134;2022-07-25T23:46:39;100280.63;;;19.40;60.35
5814;BME280;2933;52.302;8.134;2022-07-25T23:51:42;100258.38;;;19.33;60.55
5814;BME280;2933;52.302;8.134;2022-07-25T23:56:43;100296.16;;;19.35;61.65
